Time;durP1;ratioP1;P1;durP2;ratioP2;P2;SDS_P1;SDS_P2;PMS_P1;PMS_P2;Temp;Humidity;BMP_temperature;BMP_pressure;BME280_temperature;BME280_humidity;BME280_pressure;Samples;Min_cycle;Max_cycle;Signal;HPM_P1;HPM_P2
2023/06/29 00:00:11;;;;;;;8.38;6.07;;;15.60;99.90;;;;;;2039668;28;20031;-72
2023/06/29 00:01:13;;;;;;;8.57;6.07;;;15.60;99.90;;;;;;2047771;28;20025;-72
2023/06/29 00:02:13;;;;;;;7.65;5.85;;;15.50;99.90;;;;;;2039054;28;20031;-72
2023/06/29 00:03:17;;;;;;;8.30;5.95;;;15.50;99.90;;;;;;2039625;29;20027;-71
2023/06/29 00:04:20;;;;;;;9.48;6.07;;;15.50;99.90;;;;;;2041585;29;20034;-73
2023/06/29 00:05:21;;;;;;;9.73;5.75;;;15.50;99.90;;;;;;2038426;29;20027;-72
2023/06/29 00:06:22;;;;;;;10.50;6.07;;;15.50;99.90;;;;;;2030512;29;20183;-71
2023/06/29 00:07:25;;;;;;;8.82;5.85;;;15.50;99.90;;;;;;2037826;28;20566;-70
2023/06/29 00:08:27;;;;;;;8.80;5.97;;;15.50;99.90;;;;;;2033159;28;20024;-72
2023/06/29 00:09:28;;;;;;;8.13;6.07;;;15.50;99.90;;;;;;2037869;29;20664;-72
2023/06/29 00:10:29;;;;;;;10.77;6.03;;;15.40;99.90;;;;;;2036572;29;20127;-72
2023/06/29 00:11:30;;;;;;;10.00;6.15;;;15.40;99.90;;;;;;2040186;29;20054;-72
2023/06/29 00:12:31;;;;;;;9.00;6.07;;;15.40;99.90;;;;;;2038203;29;20028;-72
2023/06/29 00:13:31;;;;;;;10.10;6.63;;;15.40;99.90;;;;;;2038921;29;20543;-72
2023/06/29 00:14:32;;;;;;;8.10;6.28;;;15.50;99.90;;;;;;2039220;28;20435;-73
2023/06/29 00:15:32;;;;;;;9.68;6.07;;;15.40;99.90;;;;;;2039726;28;20040;-71
2023/06/29 00:16:33;;;;;;;7.60;6.10;;;15.40;99.90;;;;;;2036360;28;20083;-71
2023/06/29 00:17:34;;;;;;;9.35;6.13;;;15.40;99.90;;;;;;2040665;29;20036;-72
2023/06/29 00:18:35;;;;;;;9.65;6.32;;;15.40;99.90;;;;;;2041406;29;20461;-72
2023/06/29 00:19:36;;;;;;;9.05;6.28;;;15.40;99.90;;;;;;2047571;28;20024;-71
2023/06/29 00:20:37;;;;;;;7.47;6.03;;;15.40;99.90;;;;;;2047293;28;20030;-72
2023/06/29 00:21:37;;;;;;;8.13;6.28;;;15.40;99.90;;;;;;2047613;28;20023;-72
2023/06/29 00:22:40;;;;;;;7.82;6.30;;;15.40;99.90;;;;;;2048926;28;20049;-72
2023/06/29 00:23:40;;;;;;;10.07;6.70;;;15.40;99.90;;;;;;2038938;28;20054;-73
2023/06/29 00:24:44;;;;;;;10.07;6.90;;;15.40;99.90;;;;;;2038923;29;20075;-72
2023/06/29 00:25:46;;;;;;;10.13;6.57;;;15.40;99.90;;;;;;2038871;28;20044;-73
2023/06/29 00:26:47;;;;;;;9.15;6.63;;;15.30;99.90;;;;;;2041277;28;20027;-72
2023/06/29 00:27:48;;;;;;;9.57;6.85;;;15.30;99.90;;;;;;2041505;28;20038;-72
2023/06/29 00:28:49;;;;;;;8.65;6.60;;;15.30;99.90;;;;;;2035852;28;20082;-72
2023/06/29 00:29:50;;;;;;;11.30;7.22;;;15.30;99.90;;;;;;2039627;29;20033;-72
2023/06/29 00:30:51;;;;;;;9.02;6.82;;;15.30;99.90;;;;;;2037022;29;20066;-72
2023/06/29 00:31:51;;;;;;;10.18;6.85;;;15.30;99.90;;;;;;2038075;29;20035;-73
2023/06/29 00:32:52;;;;;;;8.75;7.13;;;15.30;99.90;;;;;;2043110;28;20031;-72
2023/06/29 00:33:53;;;;;;;11.20;7.10;;;15.30;99.90;;;;;;2038282;29;20070;-72
2023/06/29 00:34:53;;;;;;;8.18;6.65;;;15.30;99.90;;;;;;2038636;29;20032;-73
2023/06/29 00:35:54;;;;;;;8.38;6.72;;;15.20;99.90;;;;;;2036353;29;20145;-71
2023/06/29 00:36:56;;;;;;;10.95;7.20;;;15.20;99.90;;;;;;2046660;28;20035;-72
2023/06/29 00:37:57;;;;;;;11.50;7.57;;;15.20;99.90;;;;;;2032945;29;20028;-73
2023/06/29 00:38:57;;;;;;;11.85;7.80;;;15.20;99.90;;;;;;2031525;29;20025;-73
2023/06/29 00:39:58;;;;;;;11.95;7.90;;;15.20;99.90;;;;;;2028203;29;20097;-73
2023/06/29 00:41:00;;;;;;;11.80;7.60;;;15.20;99.90;;;;;;2024016;29;20392;-73
2023/06/29 00:42:01;;;;;;;13.63;7.82;;;15.20;99.90;;;;;;2029477;29;20035;-72
2023/06/29 00:43:02;;;;;;;14.10;7.35;;;15.20;99.90;;;;;;2035888;29;20123;-78
2023/06/29 00:44:04;;;;;;;10.43;7.38;;;15.20;99.90;;;;;;2035918;29;20550;-73
2023/06/29 00:45:05;;;;;;;11.82;6.72;;;15.20;99.90;;;;;;2040229;29;20047;-74
2023/06/29 00:46:09;;;;;;;9.80;6.85;;;15.20;99.90;;;;;;2027029;29;20024;-71
2023/06/29 00:47:09;;;;;;;9.07;6.53;;;15.20;99.90;;;;;;2025859;29;20024;-71
2023/06/29 00:48:10;;;;;;;8.98;6.80;;;15.20;99.90;;;;;;2035136;29;20031;-73
2023/06/29 00:49:11;;;;;;;10.50;6.57;;;15.20;99.90;;;;;;2035105;29;20688;-73
2023/06/29 00:50:13;;;;;;;10.80;6.70;;;15.20;99.90;;;;;;2036076;29;20481;-72
2023/06/29 00:51:16;;;;;;;8.90;6.63;;;15.20;99.90;;;;;;2048888;28;20600;-72
2023/06/29 00:52:16;;;;;;;8.02;6.20;;;15.20;99.90;;;;;;2047542;28;20031;-72
2023/06/29 00:53:17;;;;;;;8.68;6.07;;;15.20;99.90;;;;;;2036084;28;20043;-71
2023/06/29 00:54:18;;;;;;;7.53;5.95;;;15.20;99.90;;;;;;2036580;28;20027;-72
2023/06/29 00:55:18;;;;;;;7.70;5.90;;;15.20;99.90;;;;;;2034990;29;20138;-72
2023/06/29 00:56:19;;;;;;;8.90;5.97;;;15.20;99.90;;;;;;2036763;29;20043;-72
2023/06/29 00:57:22;;;;;;;10.32;5.88;;;15.10;99.90;;;;;;2040263;28;20031;-73
2023/06/29 00:58:22;;;;;;;7.95;5.50;;;15.20;99.90;;;;;;2045304;28;20099;-72
2023/06/29 00:59:23;;;;;;;6.97;5.45;;;15.10;99.90;;;;;;2030262;29;20020;-73
2023/06/29 01:00:23;;;;;;;7.95;5.65;;;15.20;99.90;;;;;;2032609;29;20099;-71
2023/06/29 01:01:24;;;;;;;6.80;5.25;;;15.20;99.90;;;;;;2039338;28;20055;-72
2023/06/29 01:02:25;;;;;;;8.80;6.15;;;15.20;99.90;;;;;;2036014;29;20027;-72
2023/06/29 01:03:27;;;;;;;7.45;5.60;;;15.10;99.90;;;;;;2046857;28;20065;-73
2023/06/29 01:04:28;;;;;;;9.30;5.88;;;15.10;99.90;;;;;;2047159;28;20019;-72
2023/06/29 01:05:34;;;;;;;9.25;5.28;;;15.10;99.90;;;;;;2039287;28;20035;-73
2023/06/29 01:06:44;;;;;;;8.35;5.60;;;15.10;99.90;;;;;;2034952;29;20035;-73
2023/06/29 01:08:19;;;;;;;6.57;5.20;;;15.10;99.90;;;;;;2039972;29;20062;-72
2023/06/29 01:09:19;;;;;;;6.93;5.40;;;15.10;99.90;;;;;;2033981;29;20139;-71
2023/06/29 01:10:29;;;;;;;7.72;5.45;;;15.00;99.90;;;;;;2044714;29;20544;-72
2023/06/29 01:11:32;;;;;;;8.10;5.53;;;15.00;99.90;;;;;;2041922;29;20028;-72
2023/06/29 01:12:34;;;;;;;9.23;5.80;;;15.00;99.90;;;;;;2035246;29;20039;-73
2023/06/29 01:13:38;;;;;;;7.30;5.30;;;15.00;99.90;;;;;;2039494;28;20069;-72
2023/06/29 01:14:40;;;;;;;8.27;5.40;;;15.00;99.90;;;;;;2039265;28;20027;-72
2023/06/29 01:15:42;;;;;;;8.13;5.07;;;15.00;99.90;;;;;;2039089;29;20063;-72
2023/06/29 01:16:43;;;;;;;7.20;5.40;;;15.00;99.90;;;;;;2040696;29;20441;-73
2023/06/29 01:17:46;;;;;;;8.75;5.70;;;15.00;99.90;;;;;;2038095;29;20043;-73
2023/06/29 01:18:49;;;;;;;6.95;5.55;;;15.00;99.90;;;;;;2036066;28;20112;-72
2023/06/29 01:19:51;;;;;;;6.68;5.30;;;15.00;99.90;;;;;;2028503;29;20040;-72
2023/06/29 01:20:53;;;;;;;7.80;5.47;;;15.00;99.90;;;;;;2038151;28;20511;-71
2023/06/29 01:22:04;;;;;;;9.27;5.93;;;15.00;99.90;;;;;;2045573;28;20036;-72
2023/06/29 01:23:14;;;;;;;7.57;5.18;;;15.00;99.90;;;;;;2037457;29;20510;-72
2023/06/29 01:24:18;;;;;;;7.88;5.15;;;14.90;99.90;;;;;;2033750;29;20032;-72
2023/06/29 01:25:20;;;;;;;7.72;5.35;;;14.90;99.90;;;;;;2046674;28;20041;-72
2023/06/29 01:26:22;;;;;;;8.48;6.00;;;14.90;99.90;;;;;;2048466;28;20056;-73
2023/06/29 01:27:23;;;;;;;7.57;5.60;;;14.90;99.90;;;;;;2039372;28;20062;-72
2023/06/29 01:28:24;;;;;;;8.63;5.47;;;14.90;99.90;;;;;;2039606;28;20105;-73
2023/06/29 01:29:25;;;;;;;9.75;5.32;;;14.90;99.90;;;;;;2039421;29;20019;-73
2023/06/29 01:30:27;;;;;;;8.23;5.30;;;14.90;99.90;;;;;;2035861;29;20027;-73
2023/06/29 01:31:30;;;;;;;6.90;5.10;;;14.90;99.90;;;;;;2046031;28;20082;-73
2023/06/29 01:32:35;;;;;;;7.35;5.05;;;14.90;99.90;;;;;;2037434;29;20075;-72
2023/06/29 01:33:35;;;;;;;7.88;5.30;;;14.80;99.90;;;;;;2036432;29;20031;-73
2023/06/29 01:34:37;;;;;;;11.10;5.60;;;14.90;99.90;;;;;;2042878;28;20039;-73
2023/06/29 01:35:38;;;;;;;7.38;5.20;;;14.90;99.90;;;;;;2044583;29;20594;-73
2023/06/29 01:36:48;;;;;;;6.68;5.30;;;14.90;99.90;;;;;;2040027;29;20467;-72
2023/06/29 01:38:21;;;;;;;7.32;5.25;;;14.90;99.90;;;;;;2035550;29;20629;-73
2023/06/29 01:39:26;;;;;;;9.00;5.50;;;14.80;99.90;;;;;;2021275;29;20055;-72
2023/06/29 01:40:29;;;;;;;8.82;5.80;;;14.80;99.90;;;;;;2036437;29;20015;-72
2023/06/29 01:41:40;;;;;;;8.30;5.28;;;14.80;99.90;;;;;;2046281;28;20069;-73
2023/06/29 01:42:41;;;;;;;8.27;5.47;;;14.80;99.90;;;;;;2043822;28;20408;-72
2023/06/29 01:43:44;;;;;;;9.23;5.50;;;14.80;99.90;;;;;;2035462;29;20051;-72
2023/06/29 01:44:44;;;;;;;7.95;5.28;;;14.80;99.90;;;;;;2041527;28;20066;-71
2023/06/29 01:45:47;;;;;;;7.47;5.55;;;14.80;99.90;;;;;;2039799;29;20034;-72
2023/06/29 01:46:52;;;;;;;10.45;5.80;;;14.80;99.90;;;;;;2046996;28;20023;-72
2023/06/29 01:47:55;;;;;;;6.45;5.10;;;14.70;99.90;;;;;;2038906;28;20039;-72
2023/06/29 01:48:56;;;;;;;10.48;5.32;;;14.70;99.90;;;;;;2038631;29;20023;-73
2023/06/29 01:49:57;;;;;;;7.28;5.38;;;14.80;99.90;;;;;;2036896;29;20394;-72
2023/06/29 01:50:58;;;;;;;7.55;5.32;;;14.80;99.90;;;;;;2039702;29;20035;-72
2023/06/29 01:51:58;;;;;;;8.73;5.63;;;14.70;99.90;;;;;;2037772;29;20066;-72
2023/06/29 01:53:02;;;;;;;7.20;5.40;;;14.70;99.90;;;;;;2038332;28;20024;-72
2023/06/29 01:54:03;;;;;;;9.57;5.85;;;14.70;99.90;;;;;;2045684;28;20027;-72
2023/06/29 01:55:09;;;;;;;7.35;5.05;;;14.70;99.90;;;;;;2048395;28;20023;-71
2023/06/29 01:56:09;;;;;;;6.95;5.55;;;14.70;99.90;;;;;;2035589;29;20034;-72
2023/06/29 01:57:10;;;;;;;8.43;5.30;;;14.70;99.90;;;;;;2035947;29;20569;-72
2023/06/29 01:58:11;;;;;;;8.55;5.40;;;14.70;99.90;;;;;;2047046;28;20031;-71
2023/06/29 01:59:11;;;;;;;9.90;5.70;;;14.70;99.90;;;;;;2039998;29;20031;-71
2023/06/29 02:00:13;;;;;;;9.13;5.47;;;14.70;99.90;;;;;;2037678;28;22529;-72
2023/06/29 02:01:16;;;;;;;7.22;5.40;;;14.60;99.90;;;;;;2037888;29;20032;-72
2023/06/29 02:02:16;;;;;;;6.53;5.38;;;14.60;99.90;;;;;;2030141;29;20471;-72
2023/06/29 02:03:17;;;;;;;7.85;5.18;;;14.60;99.90;;;;;;2032636;29;20039;-72
2023/06/29 02:04:19;;;;;;;11.75;5.80;;;14.60;99.90;;;;;;2030806;29;20031;-72
2023/06/29 02:05:20;;;;;;;10.20;5.40;;;14.60;99.90;;;;;;2037571;29;20028;-71
2023/06/29 02:06:21;;;;;;;7.20;5.43;;;14.60;99.90;;;;;;2039173;29;20082;-71
2023/06/29 02:07:22;;;;;;;7.40;5.50;;;14.60;99.90;;;;;;2038946;29;20027;-74
2023/06/29 02:08:23;;;;;;;7.03;5.30;;;14.60;99.90;;;;;;2034687;29;20039;-72
2023/06/29 02:09:24;;;;;;;8.10;5.32;;;14.60;99.90;;;;;;2034505;29;20031;-72
2023/06/29 02:10:25;;;;;;;7.72;5.45;;;14.60;99.90;;;;;;2027131;29;20427;-72
2023/06/29 02:11:25;;;;;;;9.18;4.93;;;14.60;99.90;;;;;;2039789;29;20027;-72
2023/06/29 02:12:26;;;;;;;6.97;5.10;;;14.60;99.90;;;;;;2045835;28;20023;-72
2023/06/29 02:13:26;;;;;;;6.95;5.13;;;14.50;99.90;;;;;;2045974;28;20521;-72
2023/06/29 02:14:28;;;;;;;6.95;5.25;;;14.50;99.90;;;;;;2045738;28;20047;-71
2023/06/29 02:15:28;;;;;;;10.85;5.13;;;14.50;99.90;;;;;;2046147;28;20239;-72
2023/06/29 02:16:29;;;;;;;10.90;5.28;;;14.50;99.90;;;;;;2048115;28;20696;-72
2023/06/29 02:17:29;;;;;;;8.15;4.88;;;14.50;99.90;;;;;;2034635;29;20042;-72
2023/06/29 02:18:31;;;;;;;6.32;4.90;;;14.50;99.90;;;;;;2034327;29;20067;-72
2023/06/29 02:19:31;;;;;;;8.05;4.85;;;14.50;99.90;;;;;;2035029;28;20042;-72
2023/06/29 02:20:32;;;;;;;7.50;4.82;;;14.50;99.90;;;;;;2036253;29;20032;-73
2023/06/29 02:21:32;;;;;;;7.32;4.93;;;14.40;99.90;;;;;;2036790;29;20480;-71
2023/06/29 02:22:33;;;;;;;7.95;4.68;;;14.40;99.90;;;;;;2037686;29;20042;-72
2023/06/29 02:23:33;;;;;;;6.43;4.47;;;14.40;99.90;;;;;;2046417;28;20027;-71
2023/06/29 02:24:34;;;;;;;7.53;4.72;;;14.40;99.90;;;;;;2048133;28;20130;-71
2023/06/29 02:25:35;;;;;;;6.30;4.80;;;14.40;99.90;;;;;;2042841;28;20119;-72
2023/06/29 02:26:35;;;;;;;6.07;4.85;;;14.40;99.90;;;;;;2038705;28;20038;-72
2023/06/29 02:27:38;;;;;;;6.60;4.85;;;14.40;99.90;;;;;;2034452;29;20055;-72
2023/06/29 02:28:39;;;;;;;5.90;4.88;;;14.40;99.90;;;;;;2036922;29;20063;-73
2023/06/29 02:29:40;;;;;;;8.30;4.82;;;14.40;99.90;;;;;;2037819;29;20039;-72
2023/06/29 02:30:40;;;;;;;6.82;5.03;;;14.40;99.90;;;;;;2037841;28;20086;-71
2023/06/29 02:31:41;;;;;;;7.45;5.20;;;14.40;99.90;;;;;;2035213;28;20032;-71
2023/06/29 02:32:43;;;;;;;6.35;4.90;;;14.40;99.90;;;;;;2028005;29;20036;-71
2023/06/29 02:33:44;;;;;;;6.47;5.25;;;14.40;99.90;;;;;;2039087;29;20130;-72
2023/06/29 02:34:45;;;;;;;7.18;4.45;;;14.40;99.90;;;;;;2039891;29;20098;-72
2023/06/29 02:35:45;;;;;;;6.75;4.93;;;14.30;99.90;;;;;;2034363;29;20485;-72
2023/06/29 02:36:46;;;;;;;6.18;4.50;;;14.30;99.90;;;;;;2035561;29;20043;-72
2023/06/29 02:37:49;;;;;;;5.90;4.68;;;14.30;99.90;;;;;;2048063;28;20031;-72
2023/06/29 02:38:51;;;;;;;6.97;4.57;;;14.30;99.90;;;;;;2039694;29;20406;-72
2023/06/29 02:39:51;;;;;;;8.43;4.88;;;14.40;99.90;;;;;;2034499;29;20049;-71
2023/06/29 02:40:52;;;;;;;8.75;5.30;;;14.40;99.90;;;;;;2037663;28;20027;-71
2023/06/29 02:41:52;;;;;;;8.10;5.00;;;14.40;99.90;;;;;;2047602;28;20038;-72
2023/06/29 02:42:53;;;;;;;7.05;4.97;;;14.40;99.90;;;;;;2046692;28;20024;-71
2023/06/29 02:43:54;;;;;;;6.13;4.68;;;14.40;99.90;;;;;;2036979;29;20032;-71
2023/06/29 02:44:55;;;;;;;6.05;4.32;;;14.30;99.90;;;;;;2038391;28;20553;-71
2023/06/29 02:45:55;;;;;;;7.15;4.70;;;14.30;99.90;;;;;;2030287;29;20272;-71
2023/06/29 02:46:58;;;;;;;6.78;4.63;;;14.30;99.90;;;;;;2030289;29;20590;-71
2023/06/29 02:47:59;;;;;;;6.03;4.70;;;14.30;99.90;;;;;;2032379;29;20027;-71
2023/06/29 02:49:00;;;;;;;6.93;4.75;;;14.30;99.90;;;;;;2037566;29;20039;-71
2023/06/29 02:50:01;;;;;;;7.70;5.00;;;14.30;99.90;;;;;;2045535;28;20031;-71
2023/06/29 02:51:05;;;;;;;6.35;4.80;;;14.20;99.90;;;;;;2045219;28;20413;-71
2023/06/29 02:52:06;;;;;;;5.63;4.43;;;14.20;99.90;;;;;;2047847;28;20502;-72
2023/06/29 02:53:07;;;;;;;7.18;4.95;;;14.20;99.90;;;;;;2039000;29;20023;-72
2023/06/29 02:54:07;;;;;;;5.63;4.80;;;14.20;99.90;;;;;;2026425;29;20527;-71
2023/06/29 02:55:08;;;;;;;5.15;4.38;;;14.30;99.90;;;;;;2030767;29;20027;-71
2023/06/29 02:56:08;;;;;;;6.28;4.50;;;14.20;99.90;;;;;;2041305;29;20024;-72
2023/06/29 02:57:09;;;;;;;10.43;4.70;;;14.20;99.90;;;;;;2048191;28;20043;-72
2023/06/29 02:58:10;;;;;;;7.03;4.55;;;14.20;99.90;;;;;;2032775;29;20031;-72
2023/06/29 02:59:11;;;;;;;5.75;4.75;;;14.20;99.90;;;;;;2037055;29;20635;-72
2023/06/29 03:00:12;;;;;;;5.90;4.40;;;14.20;99.90;;;;;;2028311;29;20023;-71
2023/06/29 03:01:13;;;;;;;7.43;4.53;;;14.20;99.90;;;;;;2034378;29;20035;-72
2023/06/29 03:02:13;;;;;;;5.93;4.53;;;14.20;99.90;;;;;;2037101;29;20445;-71
2023/06/29 03:03:14;;;;;;;6.55;4.60;;;14.20;99.90;;;;;;2046707;28;20031;-72
2023/06/29 03:04:15;;;;;;;7.88;4.70;;;14.20;99.90;;;;;;2046686;28;20111;-71
2023/06/29 03:05:16;;;;;;;6.97;4.50;;;14.20;99.90;;;;;;2041751;28;20086;-72
2023/06/29 03:06:16;;;;;;;7.20;4.50;;;14.20;99.90;;;;;;2042018;28;20027;-72
2023/06/29 03:07:17;;;;;;;6.35;4.47;;;14.20;99.90;;;;;;2039453;28;20536;-71
2023/06/29 03:08:17;;;;;;;5.82;4.45;;;14.20;99.90;;;;;;2044530;28;20110;-71
2023/06/29 03:09:19;;;;;;;6.40;5.00;;;14.20;99.90;;;;;;2044671;28;20028;-72
2023/06/29 03:10:19;;;;;;;5.97;4.57;;;14.20;99.90;;;;;;2048891;28;20086;-72
2023/06/29 03:11:20;;;;;;;7.65;4.80;;;14.20;99.90;;;;;;2038829;29;20042;-72
2023/06/29 03:12:24;;;;;;;6.07;4.28;;;14.20;99.90;;;;;;2036969;29;20024;-71
2023/06/29 03:13:24;;;;;;;6.55;4.47;;;14.20;99.90;;;;;;2037948;29;20028;-72
2023/06/29 03:14:25;;;;;;;7.25;4.60;;;14.20;99.90;;;;;;2036544;29;20038;-72
2023/06/29 03:15:25;;;;;;;5.47;4.47;;;14.20;99.90;;;;;;2041559;29;20035;-72
2023/06/29 03:16:26;;;;;;;8.25;4.72;;;14.20;99.90;;;;;;2033139;29;20066;-72
2023/06/29 03:17:27;;;;;;;6.60;4.55;;;14.20;99.90;;;;;;2037759;29;20028;-73
2023/06/29 03:18:27;;;;;;;8.88;4.82;;;14.20;99.90;;;;;;2046052;28;20078;-71
2023/06/29 03:19:28;;;;;;;7.60;4.70;;;14.20;99.90;;;;;;2043872;28;20042;-72
2023/06/29 03:20:28;;;;;;;7.13;4.55;;;14.20;99.90;;;;;;2042491;28;20238;-72
2023/06/29 03:21:29;;;;;;;8.57;4.60;;;14.20;99.90;;;;;;2040998;29;20875;-72
2023/06/29 03:22:29;;;;;;;7.85;4.53;;;14.20;99.90;;;;;;2038260;29;20678;-72
2023/06/29 03:23:30;;;;;;;6.45;4.53;;;14.20;99.90;;;;;;2042076;29;20034;-72
2023/06/29 03:24:31;;;;;;;5.85;4.65;;;14.20;99.90;;;;;;2038593;29;20028;-72
2023/06/29 03:25:32;;;;;;;5.93;4.60;;;14.20;99.90;;;;;;2038265;29;20031;-72
2023/06/29 03:26:32;;;;;;;7.40;4.53;;;14.20;99.90;;;;;;2039749;28;20075;-72
2023/06/29 03:27:33;;;;;;;5.72;4.50;;;14.20;99.90;;;;;;2042181;28;20024;-72
2023/06/29 03:28:33;;;;;;;6.25;4.82;;;14.20;99.90;;;;;;2040358;28;20031;-70
2023/06/29 03:29:34;;;;;;;6.35;4.78;;;14.20;99.90;;;;;;2036641;29;20035;-72
2023/06/29 03:30:34;;;;;;;5.65;4.40;;;14.20;99.90;;;;;;2035908;29;20041;-71
2023/06/29 03:31:35;;;;;;;5.90;4.38;;;14.20;99.90;;;;;;2036356;29;20033;-71
2023/06/29 03:32:36;;;;;;;7.35;4.63;;;14.20;99.90;;;;;;2042302;29;20035;-71
2023/06/29 03:33:36;;;;;;;5.82;4.40;;;14.20;99.90;;;;;;2041198;28;20050;-71
2023/06/29 03:34:37;;;;;;;6.90;4.78;;;14.20;99.90;;;;;;2039593;28;20062;-71
2023/06/29 03:35:37;;;;;;;6.00;4.50;;;14.20;99.90;;;;;;2040042;28;20491;-71
2023/06/29 03:36:38;;;;;;;8.70;4.90;;;14.20;99.90;;;;;;2039829;28;20047;-71
2023/06/29 03:37:38;;;;;;;6.22;4.80;;;14.30;99.90;;;;;;2047295;28;20029;-71
2023/06/29 03:38:39;;;;;;;7.28;4.70;;;14.20;99.90;;;;;;2046718;28;20028;-72
2023/06/29 03:39:39;;;;;;;8.65;4.80;;;14.30;99.90;;;;;;2042426;28;20023;-71
2023/06/29 03:40:40;;;;;;;7.13;4.78;;;14.30;99.90;;;;;;2036530;29;20102;-71
2023/06/29 03:41:40;;;;;;;6.50;4.63;;;14.30;99.90;;;;;;2039990;29;20467;-71
2023/06/29 03:42:41;;;;;;;5.88;4.55;;;14.30;99.90;;;;;;2040814;29;20541;-71
2023/06/29 03:43:41;;;;;;;6.93;4.65;;;14.30;99.90;;;;;;2041872;29;20105;-72
2023/06/29 03:44:42;;;;;;;7.13;4.47;;;14.40;99.90;;;;;;2039421;28;20261;-72
2023/06/29 03:45:42;;;;;;;8.05;5.03;;;14.40;99.90;;;;;;2038567;29;20027;-72
2023/06/29 03:46:43;;;;;;;7.07;4.75;;;14.40;99.90;;;;;;2038772;29;20435;-72
2023/06/29 03:47:43;;;;;;;7.57;4.90;;;14.30;99.90;;;;;;2037964;29;20032;-72
2023/06/29 03:48:44;;;;;;;6.43;4.60;;;14.40;99.90;;;;;;2040565;29;20031;-72
2023/06/29 03:49:44;;;;;;;7.38;4.93;;;14.40;99.90;;;;;;2040616;29;20035;-71
2023/06/29 03:50:45;;;;;;;8.20;5.10;;;14.40;99.90;;;;;;2037934;29;20039;-72
2023/06/29 03:51:46;;;;;;;10.68;5.30;;;14.40;99.90;;;;;;2039206;29;20031;-72
2023/06/29 03:52:46;;;;;;;10.77;4.65;;;14.40;99.90;;;;;;2040056;28;20110;-71
2023/06/29 03:53:47;;;;;;;9.02;5.00;;;14.40;99.90;;;;;;2047330;28;20042;-71
2023/06/29 03:54:48;;;;;;;9.85;5.20;;;14.40;99.90;;;;;;2046045;28;20102;-72
2023/06/29 03:55:49;;;;;;;7.45;4.63;;;14.40;99.90;;;;;;2039163;29;20031;-73
2023/06/29 03:56:50;;;;;;;7.25;4.90;;;14.50;99.90;;;;;;2040790;29;20372;-73
2023/06/29 03:57:50;;;;;;;8.52;5.20;;;14.50;99.90;;;;;;2037119;29;20042;-70
2023/06/29 03:58:52;;;;;;;8.40;4.85;;;14.50;99.90;;;;;;2036254;29;20028;-71
2023/06/29 03:59:52;;;;;;;6.80;4.90;;;14.60;99.90;;;;;;2037958;29;20027;-72
2023/06/29 04:00:53;;;;;;;8.05;4.65;;;14.60;99.90;;;;;;2035957;29;20031;-72
2023/06/29 04:01:53;;;;;;;6.70;5.15;;;14.60;99.90;;;;;;2037436;29;20410;-71
2023/06/29 04:02:54;;;;;;;8.02;4.93;;;14.60;99.90;;;;;;2038748;28;20040;-72
2023/06/29 04:03:55;;;;;;;5.85;5.10;;;14.70;99.90;;;;;;2039480;28;20389;-72
2023/06/29 04:04:55;;;;;;;8.07;5.07;;;14.70;99.90;;;;;;2041568;28;20511;-72
2023/06/29 04:05:56;;;;;;;8.48;4.75;;;14.70;99.90;;;;;;2040073;29;20039;-72
2023/06/29 04:06:56;;;;;;;6.80;4.80;;;14.80;99.90;;;;;;2036275;29;20059;-70
2023/06/29 04:07:57;;;;;;;10.27;4.90;;;14.90;99.90;;;;;;2037943;29;20099;-72
2023/06/29 04:08:58;;;;;;;9.40;4.53;;;15.10;99.90;;;;;;2035412;29;20036;-72
2023/06/29 04:09:58;;;;;;;6.68;4.55;;;15.30;99.90;;;;;;2036194;29;20035;-72
2023/06/29 04:10:59;;;;;;;8.55;4.30;;;15.60;99.90;;;;;;2037475;29;20036;-73
2023/06/29 04:11:59;;;;;;;7.43;4.50;;;16.00;99.90;;;;;;2045479;28;20102;-71
2023/06/29 04:13:01;;;;;;;8.02;4.10;;;16.50;99.90;;;;;;2043872;28;20027;-71
2023/06/29 04:14:01;;;;;;;5.85;3.90;;;16.90;99.90;;;;;;2039589;28;20711;-71
2023/06/29 04:15:02;;;;;;;6.30;3.72;;;17.30;99.90;;;;;;2042030;28;20023;-72
2023/06/29 04:16:02;;;;;;;5.65;3.88;;;17.70;99.90;;;;;;2036095;29;20473;-72
2023/06/29 04:17:03;;;;;;;6.80;3.97;;;18.00;99.90;;;;;;2040402;29;20050;-72
2023/06/29 04:18:04;;;;;;;6.28;3.70;;;18.30;99.90;;;;;;2040260;29;20043;-72
2023/06/29 04:19:04;;;;;;;6.03;3.75;;;18.50;99.90;;;;;;2040325;29;20031;-72
2023/06/29 04:20:05;;;;;;;4.88;3.78;;;18.80;99.90;;;;;;2037851;28;20019;-72
2023/06/29 04:21:06;;;;;;;6.43;3.35;;;19.00;99.90;;;;;;2036793;29;20031;-73
2023/06/29 04:22:07;;;;;;;6.57;3.65;;;19.20;99.90;;;;;;2046803;28;20045;-72
2023/06/29 04:23:07;;;;;;;8.82;3.88;;;19.40;99.90;;;;;;2048534;28;20027;-73
2023/06/29 04:24:08;;;;;;;5.82;3.63;;;19.60;99.90;;;;;;2032888;29;20045;-73
2023/06/29 04:25:09;;;;;;;6.95;3.45;;;19.80;99.90;;;;;;2043021;28;20043;-73
2023/06/29 04:26:10;;;;;;;6.63;3.50;;;19.90;99.90;;;;;;2035789;28;20538;-73
2023/06/29 04:27:11;;;;;;;6.13;3.80;;;20.00;99.90;;;;;;2036987;29;20042;-73
2023/06/29 04:28:12;;;;;;;5.32;3.40;;;20.20;99.90;;;;;;2040956;29;20031;-73
2023/06/29 04:29:12;;;;;;;3.95;3.10;;;20.40;99.90;;;;;;2038343;28;20038;-72
2023/06/29 04:30:17;;;;;;;4.65;3.35;;;20.60;99.90;;;;;;2046270;28;20114;-72
2023/06/29 04:31:18;;;;;;;4.55;3.30;;;20.80;99.90;;;;;;2046156;28;20027;-72
2023/06/29 04:32:18;;;;;;;6.75;3.40;;;21.00;99.90;;;;;;2046468;28;20027;-71
2023/06/29 04:33:19;;;;;;;4.38;3.03;;;21.10;99.90;;;;;;2044875;29;20023;-72
2023/06/29 04:34:23;;;;;;;5.88;3.85;;;21.30;99.90;;;;;;2049274;28;20027;-71
2023/06/29 04:35:24;;;;;;;4.47;3.13;;;21.40;99.90;;;;;;2039468;28;20028;-71
2023/06/29 04:36:25;;;;;;;4.13;3.20;;;21.60;99.90;;;;;;2039598;29;20126;-71
2023/06/29 04:37:25;;;;;;;7.50;3.10;;;21.80;99.90;;;;;;2044430;28;20639;-71
2023/06/29 04:38:27;;;;;;;4.45;2.95;;;22.00;99.90;;;;;;2039941;29;20035;-70
2023/06/29 04:39:28;;;;;;;9.18;3.20;;;22.00;99.90;;;;;;2048503;28;20086;-73
2023/06/29 04:40:29;;;;;;;5.28;3.20;;;22.10;99.90;;;;;;2038092;29;20752;-73
2023/06/29 04:41:32;;;;;;;6.07;3.08;;;22.10;99.90;;;;;;2022527;29;20115;-72
2023/06/29 04:42:32;;;;;;;5.43;3.00;;;22.10;99.90;;;;;;2038518;29;20027;-70
2023/06/29 04:43:33;;;;;;;8.15;3.00;;;22.20;99.90;;;;;;2048652;28;20027;-71
2023/06/29 04:44:33;;;;;;;4.15;3.08;;;22.30;99.90;;;;;;2043268;28;20035;-72
2023/06/29 04:45:34;;;;;;;5.57;2.80;;;22.40;99.20;;;;;;2035996;29;20483;-72
2023/06/29 04:46:38;;;;;;;5.90;2.95;;;22.50;98.90;;;;;;2040189;29;20027;-72
2023/06/29 04:47:40;;;;;;;4.10;2.83;;;22.50;98.30;;;;;;2047850;28;20125;-73
2023/06/29 04:48:41;;;;;;;5.30;3.00;;;22.60;98.00;;;;;;2047472;28;20121;-72
2023/06/29 04:49:46;;;;;;;5.28;3.00;;;22.70;97.60;;;;;;2049085;28;20047;-72
2023/06/29 04:50:47;;;;;;;6.97;3.13;;;22.80;96.90;;;;;;2040022;28;20189;-71
2023/06/29 04:51:47;;;;;;;4.93;2.97;;;22.90;96.30;;;;;;2037459;29;20478;-71
2023/06/29 04:52:48;;;;;;;6.38;3.08;;;22.90;96.10;;;;;;2046217;28;20040;-72
2023/06/29 04:53:48;;;;;;;5.20;3.05;;;22.90;96.10;;;;;;2046765;28;20046;-72
2023/06/29 04:54:49;;;;;;;4.07;3.05;;;23.10;95.60;;;;;;2037554;29;20039;-72
2023/06/29 04:55:49;;;;;;;5.47;3.00;;;23.20;95.20;;;;;;2041145;29;20050;-72
2023/06/29 04:56:50;;;;;;;5.28;3.00;;;23.20;94.30;;;;;;2036139;29;20040;-72
2023/06/29 04:57:51;;;;;;;4.05;2.67;;;23.30;93.70;;;;;;2035841;29;20606;-73
2023/06/29 04:58:52;;;;;;;6.10;2.72;;;23.40;93.10;;;;;;2040117;29;20506;-73
2023/06/29 04:59:52;;;;;;;6.03;3.05;;;23.60;92.40;;;;;;2041719;29;20028;-73
2023/06/29 05:00:54;;;;;;;4.50;3.10;;;23.70;92.10;;;;;;2038994;28;20062;-73
2023/06/29 05:01:54;;;;;;;3.90;2.83;;;23.70;91.50;;;;;;2037122;28;20043;-73
2023/06/29 05:02:55;;;;;;;5.35;3.10;;;23.70;91.30;;;;;;2035560;29;20050;-72
2023/06/29 05:03:55;;;;;;;5.32;3.00;;;23.80;90.70;;;;;;2044612;29;20043;-72
2023/06/29 05:04:56;;;;;;;4.10;2.88;;;23.80;90.20;;;;;;2043063;28;20042;-72
2023/06/29 05:05:56;;;;;;;5.10;2.90;;;24.00;89.70;;;;;;2035600;29;20038;-72
2023/06/29 05:06:57;;;;;;;9.35;3.10;;;24.00;89.30;;;;;;2034796;29;20040;-72
2023/06/29 05:07:57;;;;;;;6.53;3.03;;;24.00;88.70;;;;;;2028565;29;20499;-73
2023/06/29 05:08:58;;;;;;;5.75;3.03;;;24.10;88.70;;;;;;2033119;29;20028;-73
2023/06/29 05:09:59;;;;;;;5.35;2.85;;;24.10;88.40;;;;;;2034909;29;20511;-73
2023/06/29 05:10:59;;;;;;;5.50;3.10;;;24.20;87.60;;;;;;2026769;29;20047;-72
2023/06/29 05:12:00;;;;;;;6.22;2.88;;;24.30;86.90;;;;;;2036944;29;20027;-73
2023/06/29 05:13:01;;;;;;;5.90;2.90;;;24.40;86.30;;;;;;2037571;29;20035;-73
2023/06/29 05:14:01;;;;;;;4.75;3.08;;;24.40;85.90;;;;;;2035875;29;20032;-73
2023/06/29 05:15:02;;;;;;;4.88;2.92;;;24.40;85.70;;;;;;2036136;29;20039;-72
2023/06/29 05:16:04;;;;;;;6.20;2.85;;;24.50;84.80;;;;;;2046662;28;20034;-72
2023/06/29 05:17:04;;;;;;;6.90;2.83;;;24.60;84.10;;;;;;2046814;28;20417;-72
2023/06/29 05:18:05;;;;;;;5.05;3.03;;;24.70;82.90;;;;;;2040802;29;20024;-73
2023/06/29 05:19:05;;;;;;;5.95;2.70;;;24.70;82.60;;;;;;2045499;28;20030;-72